createdAt,value
2022-12-29T00:01:21.415Z,54.15
2022-12-29T00:03:47.914Z,54.32
2022-12-29T00:06:14.291Z,54.18
2022-12-29T00:08:41.286Z,54.10
2022-12-29T00:11:09.339Z,54.23
2022-12-29T00:13:54.054Z,54.18
2022-12-29T00:16:20.546Z,54.15
2022-12-29T00:18:47.020Z,54.04
2022-12-29T00:21:35.672Z,53.98
2022-12-29T00:24:20.830Z,54.09
2022-12-29T00:27:06.842Z,54.13
2022-12-29T00:29:52.131Z,54.02
2022-12-29T00:32:37.171Z,54.16
2022-12-29T00:35:10.028Z,54.12
2022-12-29T00:37:56.237Z,53.91
2022-12-29T00:40:41.157Z,53.99
2022-12-29T00:43:29.429Z,53.92
2022-12-29T00:45:55.822Z,53.93
2022-12-29T00:48:41.363Z,54.17
2022-12-29T00:51:07.947Z,54.38
2022-12-29T00:53:34.466Z,54.51
2022-12-29T00:56:00.868Z,54.53
2022-12-29T00:58:30.751Z,54.42
2022-12-29T01:01:03.742Z,54.43
2022-12-29T01:03:30.138Z,54.31
2022-12-29T01:05:56.473Z,54.30
2022-12-29T01:08:22.816Z,54.18
2022-12-29T01:10:58.608Z,54.50
2022-12-29T01:13:24.999Z,54.15
2022-12-29T01:15:52.041Z,54.17
2022-12-29T01:18:18.453Z,54.12
2022-12-29T01:20:44.817Z,54.26
2022-12-29T01:23:11.156Z,54.37
2022-12-29T01:25:37.494Z,54.16
2022-12-29T01:28:03.861Z,54.05
2022-12-29T01:30:30.188Z,54.19
2022-12-29T01:32:56.513Z,54.05
2022-12-29T01:35:22.874Z,54.16
2022-12-29T01:37:49.227Z,54.07
2022-12-29T01:40:15.547Z,54.12
2022-12-29T01:42:41.917Z,54.40
2022-12-29T01:45:11.924Z,54.58
2022-12-29T01:47:39.666Z,54.66
2022-12-29T01:50:26.262Z,54.42
2022-12-29T01:52:57.280Z,54.55
2022-12-29T01:55:23.692Z,54.42
2022-12-29T01:57:50.535Z,54.41
2022-12-29T02:00:17.912Z,54.31
2022-12-29T02:02:48.781Z,54.32
2022-12-29T02:05:16.979Z,54.47
2022-12-29T02:07:45.082Z,54.59
2022-12-29T02:10:11.432Z,54.38
2022-12-29T02:12:37.795Z,54.36
2022-12-29T02:15:04.225Z,54.40
2022-12-29T02:17:35.267Z,54.38
2022-12-29T02:20:36.807Z,54.43
2022-12-29T02:23:12.198Z,54.47
2022-12-29T02:25:46.020Z,54.49
2022-12-29T02:28:15.112Z,54.64
2022-12-29T02:30:56.087Z,54.39
2022-12-29T02:33:31.922Z,54.47
2022-12-29T02:36:10.910Z,54.29
2022-12-29T02:38:49.345Z,54.39
2022-12-29T02:41:22.885Z,54.35
2022-12-29T02:43:55.231Z,54.45
2022-12-29T02:46:40.193Z,54.23
2022-12-29T02:49:08.536Z,54.36
2022-12-29T02:51:53.800Z,54.26
2022-12-29T02:54:38.784Z,54.18
2022-12-29T02:57:10.643Z,54.16
2022-12-29T02:59:37.050Z,54.02
2022-12-29T03:02:35.465Z,54.16
2022-12-29T03:05:08.771Z,53.78
2022-12-29T03:07:40.985Z,53.85
2022-12-29T03:10:15.074Z,53.99
2022-12-29T03:13:01.960Z,53.96
2022-12-29T03:15:53.945Z,54.02
2022-12-29T03:18:22.226Z,53.81
2022-12-29T03:21:01.626Z,53.90
2022-12-29T03:23:28.024Z,53.85
2022-12-29T03:25:55.602Z,53.78
2022-12-29T03:28:23.223Z,53.91
2022-12-29T03:30:49.652Z,53.77
2022-12-29T03:33:22.583Z,53.61
2022-12-29T03:35:49.258Z,53.67
2022-12-29T03:38:22.895Z,53.71
2022-12-29T03:40:49.777Z,53.74
2022-12-29T03:43:16.178Z,53.73
2022-12-29T03:45:42.577Z,53.63
2022-12-29T03:48:09.605Z,53.55
2022-12-29T03:50:38.793Z,53.51
2022-12-29T03:53:05.431Z,53.54
2022-12-29T03:55:31.770Z,53.47
2022-12-29T03:57:58.162Z,53.71
2022-12-29T04:00:44.771Z,53.62
2022-12-29T04:03:11.277Z,53.55
2022-12-29T04:05:37.953Z,53.51
2022-12-29T04:08:04.611Z,53.53
2022-12-29T04:10:30.966Z,53.39
2022-12-29T04:13:00.283Z,53.49
2022-12-29T04:15:30.072Z,53.51
2022-12-29T04:17:57.464Z,53.39
2022-12-29T04:20:42.723Z,53.51
2022-12-29T04:23:09.182Z,53.30
2022-12-29T04:25:37.197Z,53.31
2022-12-29T04:28:03.814Z,53.33
2022-12-29T04:30:53.971Z,53.42
2022-12-29T04:33:34.981Z,53.45
2022-12-29T04:36:01.934Z,53.59
2022-12-29T04:38:28.345Z,53.33
2022-12-29T04:40:54.919Z,53.27
2022-12-29T04:43:23.551Z,53.45
2022-12-29T04:46:08.374Z,53.38
2022-12-29T04:48:42.883Z,53.39
2022-12-29T04:51:26.157Z,53.44
2022-12-29T04:53:52.590Z,53.41
2022-12-29T04:56:18.932Z,53.33
2022-12-29T04:58:45.399Z,53.37
2022-12-29T05:01:13.569Z,53.41
2022-12-29T05:03:40.464Z,53.57
2022-12-29T05:06:06.990Z,53.39
2022-12-29T05:08:34.576Z,53.48
2022-12-29T05:11:02.588Z,53.29
2022-12-29T05:13:28.968Z,53.59
2022-12-29T05:15:55.369Z,53.56
2022-12-29T05:18:23.471Z,53.35
2022-12-29T05:20:50.109Z,53.57
2022-12-29T05:23:17.943Z,53.61
2022-12-29T05:25:49.135Z,53.55
2022-12-29T05:28:18.648Z,53.32
2022-12-29T05:31:07.257Z,53.35
2022-12-29T05:33:34.028Z,53.33
2022-12-29T05:36:09.730Z,53.62
2022-12-29T05:38:38.724Z,53.61
2022-12-29T05:41:05.257Z,53.50
2022-12-29T05:44:02.551Z,53.53
2022-12-29T05:46:31.943Z,53.57
2022-12-29T05:49:18.587Z,53.45
2022-12-29T05:52:03.629Z,53.38
2022-12-29T05:54:32.334Z,53.35
2022-12-29T05:56:58.806Z,53.42
2022-12-29T05:59:25.391Z,53.34
2022-12-29T06:01:53.160Z,53.25
2022-12-29T06:04:19.845Z,53.24
2022-12-29T06:06:47.113Z,53.27
2022-12-29T06:09:22.239Z,53.28
2022-12-29T06:11:48.618Z,53.39
2022-12-29T06:14:14.990Z,53.44
2022-12-29T06:16:43.183Z,53.26
2022-12-29T06:19:12.018Z,53.31
2022-12-29T06:21:38.653Z,53.41
2022-12-29T06:24:05.512Z,53.17
2022-12-29T06:26:33.936Z,53.22
2022-12-29T06:29:00.395Z,53.14
2022-12-29T06:31:26.885Z,53.17
2022-12-29T06:33:53.353Z,53.17
2022-12-29T06:36:19.720Z,53.09
2022-12-29T06:38:46.349Z,53.06
2022-12-29T06:41:12.718Z,53.16
2022-12-29T06:43:57.828Z,53.11
2022-12-29T06:46:36.451Z,53.19
2022-12-29T06:49:02.940Z,53.41
2022-12-29T06:51:29.283Z,53.22
2022-12-29T06:53:55.626Z,53.27
2022-12-29T06:56:22.006Z,53.20
2022-12-29T06:58:48.330Z,53.28
2022-12-29T07:01:14.734Z,53.30
2022-12-29T07:03:42.350Z,53.18
2022-12-29T07:06:08.684Z,53.14
2022-12-29T07:08:35.051Z,53.07
2022-12-29T07:11:01.406Z,53.07
2022-12-29T07:13:27.750Z,53.17
2022-12-29T07:15:54.105Z,52.97
2022-12-29T07:18:20.438Z,52.64
2022-12-29T07:20:46.768Z,52.88
2022-12-29T07:23:13.115Z,53.13
2022-12-29T07:25:41.694Z,53.20
2022-12-29T07:28:08.039Z,53.17
2022-12-29T07:30:34.638Z,53.15
2022-12-29T07:33:00.990Z,53.48
2022-12-29T07:35:27.341Z,53.51
2022-12-29T07:37:53.669Z,53.30
2022-12-29T07:40:20.015Z,53.47
2022-12-29T07:42:46.472Z,53.39
2022-12-29T07:45:15.301Z,53.28
2022-12-29T07:47:50.125Z,53.37
2022-12-29T07:50:16.544Z,53.58
2022-12-29T07:52:42.860Z,53.53
2022-12-29T07:55:09.753Z,53.40
2022-12-29T07:57:36.113Z,53.38
2022-12-29T08:00:02.533Z,53.43
2022-12-29T08:02:38.306Z,53.65
2022-12-29T08:05:05.116Z,53.45
2022-12-29T08:07:31.443Z,53.52
2022-12-29T08:09:58.186Z,53.57
2022-12-29T08:12:24.520Z,53.55
2022-12-29T08:14:50.898Z,52.53
2022-12-29T08:17:17.266Z,52.07
2022-12-29T08:19:43.709Z,52.16
2022-12-29T08:22:10.060Z,50.68
2022-12-29T08:24:36.545Z,51.63
2022-12-29T08:27:11.865Z,50.93
2022-12-29T08:29:42.378Z,50.42
2022-12-29T08:32:08.751Z,49.94
2022-12-29T08:34:35.163Z,50.44
2022-12-29T08:37:01.503Z,49.93
2022-12-29T08:40:13.918Z,49.81
2022-12-29T08:42:40.251Z,48.78
2022-12-29T08:45:07.187Z,47.94
2022-12-29T08:47:33.953Z,47.85
2022-12-29T08:50:00.326Z,48.49
2022-12-29T08:52:26.661Z,49.00
2022-12-29T08:54:53.039Z,49.33
2022-12-29T08:57:20.336Z,49.48
2022-12-29T08:59:58.568Z,49.69
2022-12-29T09:02:25.172Z,49.82
2022-12-29T09:04:51.981Z,50.02
2022-12-29T09:07:18.349Z,50.15
2022-12-29T09:09:44.691Z,50.34
2022-12-29T09:12:11.221Z,50.29
2022-12-29T09:14:37.550Z,50.23
2022-12-29T09:17:22.615Z,50.19
2022-12-29T09:19:48.948Z,50.54
2022-12-29T09:22:15.281Z,50.58
2022-12-29T09:24:41.621Z,50.54
2022-12-29T09:27:07.938Z,50.67
2022-12-29T09:29:34.309Z,50.58
2022-12-29T09:32:00.647Z,50.57
2022-12-29T09:34:26.969Z,50.57
2022-12-29T09:36:53.296Z,50.78
2022-12-29T09:39:19.715Z,50.72
2022-12-29T09:41:50.776Z,50.74
2022-12-29T09:44:19.524Z,50.76
2022-12-29T09:46:46.354Z,50.91
2022-12-29T09:49:17.533Z,50.77
2022-12-29T09:51:44.240Z,50.85
2022-12-29T09:54:13.295Z,51.02
2022-12-29T09:56:39.608Z,51.02
2022-12-29T09:59:11.448Z,50.78
2022-12-29T10:01:40.440Z,50.85
2022-12-29T10:04:06.916Z,50.88
2022-12-29T10:07:03.691Z,51.00
2022-12-29T10:09:34.298Z,50.94
2022-12-29T10:12:15.611Z,51.01
2022-12-29T10:14:52.322Z,49.94
2022-12-29T10:17:37.259Z,50.83
2022-12-29T10:20:25.529Z,50.20
2022-12-29T10:22:56.174Z,50.10
2022-12-29T10:25:26.095Z,50.03
2022-12-29T10:27:54.840Z,50.47
2022-12-29T10:30:21.192Z,49.42
2022-12-29T10:32:51.589Z,49.78
2022-12-29T10:35:21.919Z,49.68
2022-12-29T10:37:58.997Z,49.09
2022-12-29T10:40:32.384Z,49.95
2022-12-29T10:42:59.037Z,49.55
2022-12-29T10:45:26.809Z,49.79
2022-12-29T10:47:54.606Z,50.30
2022-12-29T10:50:20.978Z,50.53
2022-12-29T10:52:47.411Z,50.53
2022-12-29T10:55:14.239Z,50.09
2022-12-29T10:57:42.010Z,50.57
2022-12-29T11:00:16.029Z,51.12
2022-12-29T11:02:58.893Z,51.25
2022-12-29T11:05:42.082Z,51.22
2022-12-29T11:08:15.152Z,51.24
2022-12-29T11:10:43.550Z,51.37
2022-12-29T11:13:18.496Z,51.46
2022-12-29T11:15:44.742Z,51.74
2022-12-29T11:18:21.528Z,51.96
2022-12-29T11:20:48.859Z,52.00
2022-12-29T11:23:22.520Z,51.87
2022-12-29T11:26:05.168Z,52.02
2022-12-29T11:28:34.436Z,51.89
2022-12-29T11:31:01.480Z,51.67
2022-12-29T11:33:30.829Z,51.70
2022-12-29T11:36:01.944Z,51.75
2022-12-29T11:38:30.245Z,51.82
2022-12-29T11:40:56.603Z,51.63
2022-12-29T11:43:24.631Z,51.78
2022-12-29T11:45:51.183Z,51.97
2022-12-29T11:48:18.031Z,51.99
2022-12-29T11:50:44.391Z,51.70
2022-12-29T11:53:16.552Z,52.00
2022-12-29T11:55:51.082Z,51.98
2022-12-29T11:58:17.393Z,52.23
2022-12-29T12:00:43.760Z,52.22
2022-12-29T12:03:22.283Z,51.94
2022-12-29T12:05:58.851Z,52.02
2022-12-29T12:08:35.518Z,52.20
2022-12-29T12:11:06.533Z,52.47
2022-12-29T12:13:48.884Z,52.34
2022-12-29T12:16:19.470Z,52.35
2022-12-29T12:18:54.630Z,52.44
2022-12-29T12:21:34.055Z,52.30
2022-12-29T12:24:19.237Z,52.44
2022-12-29T12:26:53.195Z,52.52
2022-12-29T12:29:26.514Z,52.53
2022-12-29T12:31:54.196Z,52.70
2022-12-29T12:34:25.530Z,52.82
2022-12-29T12:37:07.015Z,52.70
2022-12-29T12:39:45.813Z,52.95
2022-12-29T12:42:25.413Z,53.18
2022-12-29T12:45:12.539Z,53.60
2022-12-29T12:47:43.430Z,53.66
2022-12-29T12:50:42.139Z,53.62
2022-12-29T12:53:17.629Z,53.76
2022-12-29T12:55:53.015Z,53.57
2022-12-29T12:58:22.366Z,53.88
2022-12-29T13:00:52.627Z,53.93
2022-12-29T13:03:30.108Z,54.13
2022-12-29T13:06:15.294Z,54.02
2022-12-29T13:09:00.374Z,53.77
2022-12-29T13:11:32.527Z,53.86
2022-12-29T13:14:14.139Z,54.20
2022-12-29T13:16:49.555Z,54.15
2022-12-29T13:19:28.267Z,53.88
2022-12-29T13:22:21.377Z,54.19
2022-12-29T13:24:49.725Z,54.25
2022-12-29T13:27:33.548Z,53.18
2022-12-29T13:30:19.178Z,52.47
2022-12-29T13:32:50.831Z,52.10
2022-12-29T13:35:35.710Z,52.93
2022-12-29T13:38:04.593Z,52.96
2022-12-29T13:40:35.169Z,53.12
2022-12-29T13:43:01.856Z,53.10
2022-12-29T13:45:29.463Z,53.27
2022-12-29T13:47:56.952Z,53.24
2022-12-29T13:50:24.120Z,53.29
2022-12-29T13:52:59.936Z,53.28
2022-12-29T13:55:28.020Z,53.39
2022-12-29T13:57:56.634Z,53.57
2022-12-29T14:00:23.396Z,53.37
2022-12-29T14:03:04.839Z,53.50
2022-12-29T14:05:31.821Z,53.35
2022-12-29T14:08:04.962Z,53.61
2022-12-29T14:10:36.155Z,53.36
2022-12-29T14:13:18.277Z,53.41
2022-12-29T14:15:45.986Z,53.67
2022-12-29T14:18:13.440Z,53.48
2022-12-29T14:20:40.735Z,53.54
2022-12-29T14:23:10.133Z,53.80
2022-12-29T14:25:55.590Z,53.94
2022-12-29T14:28:25.975Z,52.77
2022-12-29T14:30:55.980Z,52.42
2022-12-29T14:33:22.916Z,53.10
2022-12-29T14:35:52.918Z,52.77
2022-12-29T14:38:20.782Z,53.47
2022-12-29T14:40:47.414Z,53.82
2022-12-29T14:43:14.768Z,54.55
2022-12-29T14:45:41.787Z,54.35
2022-12-29T14:48:28.950Z,53.34
2022-12-29T14:50:55.289Z,53.40
2022-12-29T14:53:40.215Z,54.00
2022-12-29T14:56:09.150Z,54.17
2022-12-29T14:58:45.906Z,54.42
2022-12-29T15:01:19.319Z,54.63
2022-12-29T15:03:46.424Z,54.49
2022-12-29T15:06:13.689Z,54.51
2022-12-29T15:08:47.452Z,54.61
2022-12-29T15:11:30.116Z,54.50
2022-12-29T15:13:59.095Z,54.48
2022-12-29T15:16:32.462Z,54.19
2022-12-29T15:18:58.945Z,54.23
2022-12-29T15:21:26.392Z,54.25
2022-12-29T15:23:52.734Z,54.37
2022-12-29T15:26:23.625Z,54.40
2022-12-29T15:28:53.203Z,54.69
2022-12-29T15:31:24.860Z,54.85
2022-12-29T15:33:56.250Z,54.90
2022-12-29T15:36:23.697Z,55.02
2022-12-29T15:38:50.034Z,54.65
2022-12-29T15:41:33.776Z,54.55
2022-12-29T15:44:00.036Z,54.79
2022-12-29T15:46:26.413Z,55.01
2022-12-29T15:48:52.763Z,54.60
2022-12-29T15:51:32.640Z,54.12
2022-12-29T15:53:59.054Z,54.06
2022-12-29T15:56:25.394Z,54.27
2022-12-29T15:58:52.032Z,54.19
2022-12-29T16:01:25.566Z,54.59
2022-12-29T16:03:52.364Z,54.74
2022-12-29T16:06:29.036Z,54.87
2022-12-29T16:08:58.719Z,54.96
2022-12-29T16:11:26.518Z,54.75
2022-12-29T16:13:53.050Z,54.40
2022-12-29T16:16:20.166Z,53.94
2022-12-29T16:18:49.377Z,54.64
2022-12-29T16:21:25.055Z,54.85
2022-12-29T16:23:51.768Z,55.15
2022-12-29T16:26:21.707Z,54.70
2022-12-29T16:28:48.371Z,54.36
2022-12-29T16:31:18.328Z,54.33
2022-12-29T16:33:46.040Z,54.49
2022-12-29T16:36:30.867Z,54.49
2022-12-29T16:39:26.502Z,54.34
2022-12-29T16:41:58.584Z,54.34
2022-12-29T16:44:32.205Z,54.18
2022-12-29T16:47:10.695Z,54.00
2022-12-29T16:49:37.407Z,54.23
2022-12-29T16:52:13.716Z,54.19
2022-12-29T16:54:40.434Z,54.25
2022-12-29T16:57:06.770Z,54.52
2022-12-29T16:59:33.878Z,54.61
2022-12-29T17:02:00.515Z,54.56
2022-12-29T17:04:27.007Z,54.58
2022-12-29T17:06:53.393Z,54.46
2022-12-29T17:09:20.650Z,54.27
2022-12-29T17:12:01.691Z,54.23
2022-12-29T17:14:36.657Z,54.30
2022-12-29T17:17:06.454Z,54.14
2022-12-29T17:19:36.426Z,54.31
2022-12-29T17:22:03.066Z,54.34
2022-12-29T17:24:29.565Z,54.21
2022-12-29T17:26:57.124Z,54.31
2022-12-29T17:29:33.675Z,54.24
2022-12-29T17:32:00.047Z,54.25
2022-12-29T17:34:26.426Z,54.12
2022-12-29T17:36:58.553Z,54.01
2022-12-29T17:39:24.949Z,54.31
2022-12-29T17:41:51.337Z,53.65
2022-12-29T17:44:24.965Z,53.57
2022-12-29T17:46:51.326Z,53.44
2022-12-29T17:49:17.816Z,53.68
2022-12-29T17:51:44.575Z,53.81
2022-12-29T17:54:21.272Z,53.72
2022-12-29T17:56:47.613Z,53.71
2022-12-29T17:59:14.225Z,53.46
2022-12-29T18:01:45.433Z,53.51
2022-12-29T18:04:13.327Z,53.42
2022-12-29T18:06:40.110Z,53.46
2022-12-29T18:09:08.685Z,53.22
2022-12-29T18:11:35.051Z,53.48
2022-12-29T18:14:04.041Z,53.23
2022-12-29T18:16:30.430Z,53.65
2022-12-29T18:19:00.520Z,53.66
2022-12-29T18:21:29.543Z,54.09
2022-12-29T18:23:55.870Z,53.74
2022-12-29T18:26:28.504Z,53.84
2022-12-29T18:28:56.254Z,53.66
2022-12-29T18:31:25.648Z,53.74
2022-12-29T18:33:52.152Z,53.81
2022-12-29T18:36:18.641Z,53.90
2022-12-29T18:38:45.011Z,53.76
2022-12-29T18:41:37.503Z,53.55
2022-12-29T18:44:03.844Z,53.90
2022-12-29T18:46:30.338Z,53.79
2022-12-29T18:48:56.773Z,53.89
2022-12-29T18:51:24.008Z,53.86
2022-12-29T18:53:50.744Z,53.79
2022-12-29T18:56:17.094Z,54.04
2022-12-29T18:58:43.433Z,54.01
2022-12-29T19:01:16.067Z,54.03
2022-12-29T19:03:42.496Z,53.97
2022-12-29T19:06:09.585Z,53.94
2022-12-29T19:08:35.909Z,53.78
2022-12-29T19:11:02.244Z,53.98
2022-12-29T19:13:29.542Z,53.96
2022-12-29T19:15:56.980Z,54.03
2022-12-29T19:18:53.395Z,54.03
2022-12-29T19:21:19.887Z,53.77
2022-12-29T19:23:46.352Z,53.56
2022-12-29T19:26:20.505Z,53.54
2022-12-29T19:28:46.834Z,53.98
2022-12-29T19:31:13.211Z,54.10
2022-12-29T19:33:39.588Z,53.97
2022-12-29T19:36:05.956Z,54.02
2022-12-29T19:38:41.250Z,53.91
2022-12-29T19:41:07.728Z,54.23
2022-12-29T19:43:34.083Z,54.28
2022-12-29T19:46:05.638Z,54.33
2022-12-29T19:48:31.960Z,54.22
2022-12-29T19:51:08.679Z,54.37
2022-12-29T19:53:35.418Z,54.49
2022-12-29T19:56:02.425Z,54.50
2022-12-29T19:58:28.759Z,54.33
2022-12-29T20:00:55.154Z,54.47
2022-12-29T20:03:21.677Z,54.61
2022-12-29T20:05:48.564Z,54.55
2022-12-29T20:08:14.893Z,54.34
2022-12-29T20:10:41.210Z,53.92
2022-12-29T20:13:10.431Z,54.47
2022-12-29T20:18:38.671Z,49.23
2022-12-29T20:21:05.575Z,49.42
2022-12-29T20:23:31.948Z,48.63
2022-12-29T20:25:58.280Z,50.21
2022-12-29T20:28:24.899Z,51.21
2022-12-29T20:30:54.847Z,52.72
2022-12-29T20:33:21.190Z,52.93
2022-12-29T20:35:47.512Z,52.72
2022-12-29T20:38:13.852Z,52.63
2022-12-29T20:40:46.199Z,53.00
2022-12-29T20:43:13.567Z,52.94
2022-12-29T20:45:40.461Z,52.99
2022-12-29T20:48:06.918Z,53.02
2022-12-29T20:50:33.256Z,53.04
2022-12-29T20:52:59.596Z,52.96
2022-12-29T20:55:25.923Z,52.92
2022-12-29T21:00:38.645Z,53.21
2022-12-29T21:03:05.527Z,53.31
2022-12-29T21:05:50.152Z,53.34
2022-12-29T21:08:16.470Z,53.36
2022-12-29T21:10:45.232Z,53.53
2022-12-29T21:13:11.559Z,53.65
2022-12-29T21:15:37.934Z,53.66
2022-12-29T21:18:04.288Z,53.43
2022-12-29T21:20:35.285Z,53.43
2022-12-29T21:23:01.849Z,53.46
2022-12-29T21:25:36.958Z,53.20
2022-12-29T21:28:04.218Z,53.50
2022-12-29T21:30:30.734Z,53.48
2022-12-29T21:32:57.125Z,53.23
2022-12-29T21:35:23.492Z,53.87
2022-12-29T21:37:49.824Z,54.03
2022-12-29T21:40:16.178Z,53.98
2022-12-29T21:42:42.538Z,54.23
2022-12-29T21:45:27.564Z,54.15
2022-12-29T21:48:26.007Z,54.01
2022-12-29T21:51:14.809Z,53.94
2022-12-29T21:53:42.046Z,53.88
2022-12-29T21:56:09.381Z,54.07
2022-12-29T21:58:54.715Z,54.06
2022-12-29T22:01:39.975Z,54.03
2022-12-29T22:04:24.943Z,53.95
2022-12-29T22:07:09.872Z,54.12
2022-12-29T22:09:54.669Z,53.83
2022-12-29T22:12:39.806Z,53.93
2022-12-29T22:15:06.356Z,54.03
2022-12-29T22:17:37.426Z,54.08
2022-12-29T22:20:04.136Z,54.11
2022-12-29T22:22:30.496Z,54.04
2022-12-29T22:24:56.905Z,54.13
2022-12-29T22:27:23.337Z,53.91
2022-12-29T22:29:49.752Z,53.98
2022-12-29T22:32:17.122Z,54.11
2022-12-29T22:34:43.487Z,53.84
2022-12-29T22:37:09.849Z,53.95
2022-12-29T22:39:36.197Z,54.00
2022-12-29T22:42:05.468Z,53.93
2022-12-29T22:44:31.803Z,53.81
2022-12-29T22:46:58.217Z,53.79
2022-12-29T22:49:24.646Z,53.99
2022-12-29T22:51:51.032Z,53.76
2022-12-29T22:54:18.222Z,53.80
2022-12-29T22:56:44.567Z,53.87
2022-12-29T22:59:11.333Z,54.02
2022-12-29T23:01:37.782Z,53.96
2022-12-29T23:04:45.399Z,53.91
2022-12-29T23:06:53.452Z,54.06
2022-12-29T23:09:20.654Z,53.96
2022-12-29T23:11:47.037Z,53.89
2022-12-29T23:14:13.379Z,53.81
2022-12-29T23:16:43.355Z,53.87
2022-12-29T23:19:10.148Z,53.94
2022-12-29T23:21:36.472Z,53.81
2022-12-29T23:24:05.770Z,53.80
2022-12-29T23:26:34.107Z,54.04
2022-12-29T23:29:00.802Z,53.89
2022-12-29T23:31:33.003Z,54.09
2022-12-29T23:34:00.572Z,54.02
2022-12-29T23:36:27.215Z,54.07
2022-12-29T23:38:53.559Z,53.95
2022-12-29T23:41:19.910Z,54.21
2022-12-29T23:43:46.267Z,54.03
2022-12-29T23:46:16.216Z,54.00
2022-12-29T23:48:42.697Z,53.97
2022-12-29T23:51:09.039Z,54.01
2022-12-29T23:53:35.604Z,53.97
2022-12-29T23:56:04.583Z,53.84
2022-12-29T23:58:31.327Z,53.84
